ハルツーム の空港の天気 - METARとTAF

ハルツーム国際空港 ( HSSS / KRT ) - スーダン ハルツーム
飛行場実況気象(Metar)
観測時間01/23 10:00 EAT (01/23 08:00 UTC)
風向・風速北 6m/s
視程10km以上
天気現象
なし
気温22℃
湿度17%
気圧1012hPa
METARHSSS 230800Z 36012KT CAVOK 22/M04 Q1012 NOSIG
過去の天気等 Google飛行場航空写真 Wunderground天気予報

過去48時間のMETAR

飛行場予報(TAF)
発表時間: 1/23 07:00 EAT (1/23 05:00 UTC)
予報対象時間: 23日8時 EAT ~ 24日14時 EAT
風向・風速北 6m/s 瞬間風速 11m/s
視程10km以上
なし
TAF HSSS 230500Z 2306/2412 36012G22KT CAVOK